Startpagina
METAR-TAF:

METAR-TAF

Vliegvelden :

Vliegbasis Gilze-Rijen

Gilze-Rijen, Nederland

breedte: 51-34N, lengte: 004-56E, hoogte: 15 m

Actueel weer

Dit bericht is 9 minuten geleden gemaakt, om 19:25 UTC
Wind 12 kt uit het westen
Temperatuur 7°C
Vochtigheid 81%
Druk 1013 hPa
Zicht 10 km of meer
Weinig wolken op 1500 ft, Cumulonimbus.
Verspreide wolken op 3900 ft
Gebroken wolken op 4300 ft
lichte regen

METAR: EHGR 091925Z AUTO 28012KT 9999 -RA FEW015CB SCT039 BKN043 07/04 Q1013 RERA REDZ BLU

Tijdstip: 20:34 (19:34 UTC)


TAF: ontbreekt

Waarnemingen en weersverwachtingen van meer dan 4000 vliegvelden (METAR en TAF).

De beschikbare stations zijn de gele en rode punten op de kaart.

Ga met uw muis naar het station om de naam te zien.

Klik dan om waarnemingen en weersverwachtingen te zien.

kaart wijzigen: klik op de groene knoppen met een zwart kruis om in te zoomen, op de groene knop met een streepje om uit te zoomen of op de groene pijlen voor aangrenzende kaarten.


METAR-TAF: